Orbital elements of GLOBALSTAR M093
| Launched | 5 February 2013 |
| Flight ended | – |
| Launch site | Tyuratam Missile and Space Center, Kazakhstan (Also known as Baikonur Cosmodrome) |
| Owner | Globalstar |
| NORAD ID | 39073 |
| Date fetched |
Epoch osculation |
Inc. [°] |
Ecc. | RA asc node [hr] |
Arg Peri. [°] |
Mean anom [°] |
Mean motion [rev/day] |
Abs. mag |
| Date fetched |
Epoch osculation |
Inc. [°] |
Ecc. | RA asc node [hr] |
Arg Peri. [°] |
Mean anom [°] |
Mean motion [rev/day] |
Abs. mag |
| 2026 May 01 17:56 | 2026 May 01 10:01:05 | 52.0131 | 0.00004 | 1.2689 | 81.8012 | 278.2898 | 12.62265 | 7.500 |
| 2026 Apr 30 17:56 | 2026 Apr 30 11:12:47 | 52.0129 | 0.00004 | 1.4617 | 81.8481 | 278.2898 | 12.62265 | 7.500 |
| 2026 Apr 29 17:57 | 2026 Apr 29 02:54:21 | 52.0129 | 0.00003 | 1.7349 | 82.3297 | 278.2898 | 12.62265 | 7.500 |
| 2026 Apr 28 17:56 | 2026 Apr 28 11:42:09 | 52.0128 | 0.00003 | 1.8634 | 82.0937 | 278.2898 | 12.62265 | 7.500 |
| 2026 Apr 27 17:58 | 2026 Apr 27 10:59:49 | 52.0126 | 0.00003 | 2.0723 | 83.4381 | 278.2898 | 12.62265 | 7.500 |
| 2026 Apr 26 17:58 | 2026 Apr 26 12:11:31 | 52.0127 | 0.00003 | 2.2651 | 84.3425 | 278.2898 | 12.62265 | 7.500 |
| 2026 Apr 25 17:58 | 2026 Apr 25 11:29:11 | 52.0128 | 0.00003 | 2.4739 | 84.9849 | 278.2898 | 12.62265 | 7.500 |
| 2026 Apr 24 17:59 | 2026 Apr 24 03:10:46 | 52.0127 | 0.00003 | 2.7470 | 87.7030 | 278.2898 | 12.62265 | 7.500 |
| 2026 Apr 23 17:57 | 2026 Apr 23 04:22:27 | 52.0126 | 0.00003 | 2.9398 | 89.4709 | 278.2898 | 12.62265 | 7.500 |
| 2026 Apr 22 17:57 | 2026 Apr 22 03:40:08 | 52.0123 | 0.00003 | 3.1487 | 92.0526 | 278.2898 | 12.62265 | 7.500 |
| 2026 Apr 21 17:57 | 2026 Apr 21 12:27:55 | 52.0121 | 0.00003 | 3.2772 | 93.2875 | 278.2898 | 12.62265 | 7.500 |
| 2026 Apr 20 17:57 | 2026 Apr 20 06:03:31 | 52.0117 | 0.00002 | 3.5343 | 97.7650 | 278.2898 | 12.62265 | 7.500 |
| 2026 Apr 19 17:58 | 2026 Apr 19 05:21:11 | 52.0115 | 0.00002 | 3.7432 | 101.9294 | 278.2898 | 12.62265 | 7.500 |
| 2026 Apr 18 17:56 | 2026 Apr 18 04:38:52 | 52.0113 | 0.00002 | 3.9521 | 107.2811 | 278.2898 | 12.62265 | 7.500 |
| 2026 Apr 16 17:57 | 2026 Apr 16 05:08:14 | 52.0108 | 0.00002 | 4.3538 | 116.1165 | 278.2898 | 12.62265 | 7.500 |
| 2026 Apr 14 17:57 | 2026 Apr 14 07:31:37 | 52.0102 | 0.00002 | 4.7394 | 123.2210 | 278.2898 | 12.62265 | 7.500 |
| 2026 Apr 13 17:57 | 2026 Apr 13 06:49:18 | 52.0101 | 0.00002 | 4.9483 | 128.2986 | 278.2898 | 12.62265 | 7.500 |
| 2026 Apr 12 17:57 | 2026 Apr 12 08:00:59 | 52.0098 | 0.00003 | 5.1411 | 131.8262 | 278.2898 | 12.62265 | 7.500 |
| 2026 Apr 11 17:57 | 2026 Apr 11 07:18:40 | 52.0098 | 0.00003 | 5.3500 | 135.4581 | 278.2898 | 12.62265 | 7.500 |
| 2026 Apr 10 17:58 | 2026 Apr 10 06:36:20 | 52.0097 | 0.00003 | 5.5589 | 139.6676 | 278.2898 | 12.62265 | 7.500 |
| 2026 Apr 09 18:01 | 2026 Apr 09 00:11:56 | 52.0095 | 0.00003 | 5.8160 | 144.9043 | 278.2898 | 12.62265 | 7.500 |
| 2026 Apr 08 17:57 | 2026 Apr 08 07:05:42 | 52.0093 | 0.00003 | 5.9606 | 144.0069 | 278.2898 | 12.62265 | 7.500 |
| 2026 Apr 07 17:57 | 2026 Apr 07 04:29:21 | 52.0093 | 0.00003 | 6.1855 | 143.4483 | 278.2898 | 12.62265 | 7.500 |
| 2026 Apr 06 17:57 | 2026 Apr 06 03:47:01 | 52.0094 | 0.00004 | 6.3944 | 144.5495 | 278.2898 | 12.62265 | 7.500 |
| 2026 Apr 05 17:56 | 2026 Apr 05 10:40:47 | 52.0093 | 0.00004 | 6.5390 | 143.9467 | 278.2898 | 12.62265 | 7.500 |
| 2026 Apr 04 17:57 | 2026 Apr 04 04:16:23 | 52.0091 | 0.00004 | 6.7961 | 145.2601 | 278.2898 | 12.62265 | 7.500 |